Time;durP1;ratioP1;P1;durP2;ratioP2;P2;SDS_P1;SDS_P2;PMS_P1;PMS_P2;Temp;Humidity;BMP_temperature;BMP_pressure;BME280_temperature;BME280_humidity;BME280_pressure;Samples;Min_cycle;Max_cycle;Signal;HPM_P1;HPM_P2
2022/08/02 00:01:43;;;;;;;3.00;2.42;;;;;;;31.62;39.34;99480.88;5003899;28;20029;-90
2022/08/02 00:04:09;;;;;;;3.40;2.78;;;;;;;31.60;38.98;99475.63;5001787;28;20080;-92
2022/08/02 00:06:36;;;;;;;3.83;2.83;;;;;;;31.60;39.23;99472.06;5003215;28;20061;-90
2022/08/02 00:09:04;;;;;;;4.43;3.10;;;;;;;31.58;38.86;99474.09;5002961;28;20331;-92
2022/08/02 00:11:30;;;;;;;4.43;2.92;;;;;;;31.57;38.83;99473.25;5004103;28;20027;-91
2022/08/02 00:13:56;;;;;;;4.20;2.88;;;;;;;31.56;38.94;99476.97;5001395;28;20057;-91
2022/08/02 00:16:22;;;;;;;3.67;2.92;;;;;;;31.54;38.64;99472.72;5003370;28;20041;-90
2022/08/02 00:18:48;;;;;;;3.70;2.72;;;;;;;31.53;38.91;99480.00;5003116;28;20022;-90
2022/08/02 00:21:14;;;;;;;3.55;2.83;;;;;;;31.51;38.88;99468.50;5002431;28;20141;-90
2022/08/02 00:23:39;;;;;;;4.57;3.10;;;;;;;31.51;38.29;99467.69;5003290;28;20030;-90
2022/08/02 00:26:05;;;;;;;4.10;2.60;;;;;;;31.48;38.80;99460.75;4999292;28;20029;-90
2022/08/02 00:28:31;;;;;;;3.85;2.78;;;;;;;31.47;38.95;99456.38;4998384;28;20485;-92
2022/08/02 00:30:57;;;;;;;4.03;2.78;;;;;;;31.46;38.50;99468.16;5000097;28;20436;-91
2022/08/02 00:33:24;;;;;;;3.83;2.85;;;;;;;31.44;38.64;99459.38;4997889;28;20401;-89
2022/08/02 00:35:53;;;;;;;5.35;3.00;;;;;;;31.42;38.25;99453.31;4998712;28;20022;-89
2022/08/02 00:38:19;;;;;;;3.95;2.83;;;;;;;31.41;38.00;99462.41;4998709;28;20065;-90
2022/08/02 00:40:49;;;;;;;3.88;2.78;;;;;;;31.38;38.10;99462.75;5005678;28;20026;-89
2022/08/02 00:43:28;;;;;;;;;;;;;;;;;;;;;
2022/08/02 00:45:54;;;;;;;4.22;2.75;;;;;;;31.35;38.21;99453.13;5002105;28;20036;-89
2022/08/02 00:48:20;;;;;;;4.32;2.75;;;;;;;31.32;38.24;99459.69;4998758;28;20049;-89
2022/08/02 00:50:46;;;;;;;4.95;3.03;;;;;;;31.31;38.00;99451.75;4998483;28;20034;-90
2022/08/02 00:53:11;;;;;;;5.32;2.85;;;;;;;31.30;38.18;99456.31;4999230;28;20018;-89
2022/08/02 00:55:40;;;;;;;4.22;2.72;;;;;;;31.28;38.07;99452.09;5001278;28;20026;-91
2022/08/02 00:58:07;;;;;;;4.13;2.70;;;;;;;31.26;37.85;99454.06;4998779;28;20030;-90
2022/08/02 01:00:32;;;;;;;4.95;2.78;;;;;;;31.25;37.91;99457.75;4998976;28;20030;-90
2022/08/02 01:02:58;;;;;;;4.75;2.92;;;;;;;31.23;37.96;99457.91;4998294;28;20095;-91
2022/08/02 01:05:38;;;;;;;4.18;2.90;;;;;;;31.20;37.74;99448.34;4998779;28;20041;-90
2022/08/02 01:08:04;;;;;;;4.35;3.00;;;;;;;31.20;37.60;99455.56;4998374;28;20504;-90
2022/08/02 01:10:30;;;;;;;4.20;2.90;;;;;;;31.18;38.03;99449.50;4999671;28;20026;-90
2022/08/02 01:12:55;;;;;;;4.30;2.78;;;;;;;31.17;37.66;99442.38;4999539;28;20042;-89
2022/08/02 01:15:23;;;;;;;3.90;2.88;;;;;;;31.14;37.62;99445.44;4999248;28;20347;-90
2022/08/02 01:18:40;;;;;;;3.13;2.33;;;;;;;31.13;37.42;99443.75;4999214;28;20093;-89
2022/08/02 01:34:34;;;;;;;5.22;3.05;;;;;;;30.99;37.26;99437.94;4971249;28;20058;-88
2022/08/02 01:37:09;;;;;;;4.50;3.00;;;;;;;30.98;37.48;99438.94;4951535;29;20112;-90
2022/08/02 01:39:37;;;;;;;4.80;3.08;;;;;;;30.98;37.56;99441.63;4948552;29;20077;-88
2022/08/02 01:42:04;;;;;;;4.68;3.00;;;;;;;30.96;37.65;99438.25;4946197;29;20031;-90
2022/08/02 01:44:34;;;;;;;4.68;2.90;;;;;;;30.95;37.73;99436.59;4943625;29;20479;-89
2022/08/02 01:47:06;;;;;;;5.00;3.40;;;;;;;30.94;37.93;99440.28;4944550;29;20031;-89
2022/08/02 01:49:35;;;;;;;5.28;3.20;;;;;;;30.92;37.78;99437.75;4945146;29;20051;-90
2022/08/02 01:55:05;;;;;;;5.88;2.83;;;;;;;30.90;37.74;99434.34;5014415;23;20085;-90
2022/08/02 02:00:43;;;;;;;4.10;2.92;;;;;;;30.87;37.95;99444.59;5060745;23;20050;-90
2022/08/02 02:03:18;;;;;;;4.87;3.40;;;;;;;30.85;38.11;99443.94;4987389;28;20041;-90
2022/08/02 02:05:47;;;;;;;4.88;3.40;;;;;;;30.84;38.18;99450.31;4983492;28;20273;-90
2022/08/02 02:08:15;;;;;;;4.95;3.13;;;;;;;30.83;38.00;99443.25;4983974;28;20049;-90
2022/08/02 02:10:43;;;;;;;6.28;3.80;;;;;;;30.82;38.14;99447.78;4982203;28;20030;-91
2022/08/02 02:13:15;;;;;;;4.40;3.17;;;;;;;30.80;38.22;99447.94;4969473;28;20030;-90
2022/08/02 02:21:52;;;;;;;5.07;3.50;;;;;;;30.78;38.40;99446.41;5040869;23;20084;-89
2022/08/02 02:24:19;;;;;;;4.93;3.25;;;;;;;30.76;38.40;99443.88;5004208;28;20135;-90
2022/08/02 02:26:50;;;;;;;5.10;3.42;;;;;;;30.77;38.31;99448.28;5006551;28;20033;-90
2022/08/02 02:32:07;;;;;;;4.47;3.22;;;;;;;30.75;38.53;99436.78;5005725;28;20397;-90
2022/08/02 02:37:29;;;;;;;5.13;3.53;;;;;;;30.74;38.59;99440.50;5096343;23;20050;-90
2022/08/02 02:49:47;;;;;;;5.40;3.80;;;;;;;30.72;38.85;99439.81;5137148;23;20054;-90
2022/08/02 02:52:15;;;;;;;5.38;3.90;;;;;;;30.72;38.83;99438.97;4974936;28;20038;-90
2022/08/02 02:54:57;;;;;;;5.50;4.03;;;;;;;30.70;38.99;99441.84;4958489;28;20034;-90
2022/08/02 02:57:23;;;;;;;4.93;3.80;;;;;;;30.70;39.13;99439.13;4978185;28;20042;-89
2022/08/02 03:06:50;;;;;;;4.70;3.67;;;;;;;30.69;38.89;99437.41;5070985;23;20058;-89
2022/08/02 03:09:16;;;;;;;5.20;3.72;;;;;;;30.68;38.91;99433.00;4992600;28;20030;-90
2022/08/02 03:14:53;;;;;;;5.30;4.13;;;;;;;30.71;39.02;99430.06;5026348;28;20050;-90
2022/08/02 03:20:26;;;;;;;;;;;;;;;30.72;39.07;99431.72;5020454;23;20081;-90
2022/08/02 03:22:52;;;;;;;4.93;3.72;;;;;;;30.71;39.05;99439.97;4983459;28;19914;-90
2022/08/02 03:25:18;;;;;;;5.68;4.30;;;;;;;30.72;39.09;99434.44;4987590;28;20516;-88
2022/08/02 03:27:44;;;;;;;5.82;3.92;;;;;;;30.69;39.20;99432.03;4991778;28;20061;-89
2022/08/02 03:30:11;;;;;;;5.75;3.63;;;;;;;30.69;39.20;99437.41;4990984;28;20030;-90
2022/08/02 03:36:07;;;;;;;5.38;3.83;;;;;;;30.70;39.13;99427.50;5012859;28;20066;-90
2022/08/02 03:38:36;;;;;;;5.38;4.13;;;;;;;30.68;39.07;99428.53;4996052;28;20030;-90
2022/08/02 03:41:04;;;;;;;4.93;4.15;;;;;;;30.67;39.20;99434.88;4997084;28;20034;-89
2022/08/02 03:43:31;;;;;;;6.85;4.07;;;;;;;30.68;39.30;99430.31;4985444;28;20038;-89
2022/08/02 03:56:46;;;;;;;5.07;4.10;;;;;;;30.62;39.55;99425.56;1092697;23;20360;-89
2022/08/02 03:59:13;;;;;;;5.30;4.20;;;;;;;30.60;39.33;99427.59;4975761;28;20130;-88
2022/08/02 04:01:58;;;;;;;5.38;4.20;;;;;;;30.58;39.44;99429.56;4994688;28;20058;-88
2022/08/02 04:04:44;;;;;;;5.80;3.97;;;;;;;30.59;39.26;99425.91;4985134;28;20069;-90
2022/08/02 04:07:13;;;;;;;4.68;3.80;;;;;;;30.58;39.30;99432.25;4982766;28;20103;-89
2022/08/02 04:09:40;;;;;;;4.15;3.38;;;;;;;30.57;39.59;99430.59;4966202;28;20055;-89
2022/08/02 04:25:41;;;;;;;5.45;4.10;;;;;;;30.52;39.70;99423.00;5156857;23;20054;-88
2022/08/02 04:28:17;;;;;;;5.22;4.00;;;;;;;30.50;39.61;99428.53;4999049;28;20047;-88
2022/08/02 04:31:06;;;;;;;6.72;4.10;;;;;;;30.48;39.89;99427.84;5011547;28;20023;-89
2022/08/02 04:59:52;;;;;;;4.72;3.60;;;;;;;30.41;39.92;99445.63;5035398;23;20054;-89
2022/08/02 05:02:33;;;;;;;5.90;3.90;;;;;;;30.40;39.69;99439.41;4999548;28;20091;-90
2022/08/02 05:59:28;;;;;;;5.70;3.97;;;;;;;30.30;40.05;99476.31;5164142;23;20098;-89
2022/08/02 06:19:42;;;;;;;4.90;3.22;;;;;;;30.28;39.96;99486.41;5465310;23;20086;-90
2022/08/02 06:33:05;;;;;;;5.53;3.88;;;;;;;30.31;40.37;99494.16;5052611;23;20050;-90
2022/08/02 07:19:03;;;;;;;5.90;3.70;;;;;;;30.36;40.48;99501.78;4928818;29;20075;-89
2022/08/02 07:32:12;;;;;;;5.63;3.95;;;;;;;30.40;40.49;99498.63;4979031;28;20054;-90
2022/08/02 08:04:47;;;;;;;6.00;4.00;;;;;;;30.50;40.54;99487.75;5053028;23;20059;-91
2022/08/02 08:17:44;;;;;;;5.53;4.05;;;;;;;30.56;40.28;99491.69;5017997;28;20078;-89
2022/08/02 08:20:24;;;;;;;5.85;4.20;;;;;;;30.57;40.11;99490.69;4985136;28;20041;-89
2022/08/02 08:26:32;;;;;;;6.03;4.00;;;;;;;30.59;40.35;99485.13;5056149;23;20062;-89
2022/08/02 08:38:32;;;;;;;;;;;;;;;30.66;40.03;99486.19;5047093;23;20050;-90
2022/08/02 08:40:59;;;;;;;;;;;;;;;30.70;40.36;99484.06;4991455;28;20264;-91
2022/08/02 08:43:30;;;;;;;5.75;4.20;;;;;;;30.70;40.01;99487.63;4989792;28;20414;-90
2022/08/02 08:45:57;;;;;;;5.50;4.45;;;;;;;30.71;40.33;99489.31;4989595;28;20093;-90
2022/08/02 08:58:13;;;;;;;5.40;4.15;;;;;;;30.77;39.85;99488.66;5027295;23;20371;-90
2022/08/02 09:00:49;;;;;;;6.82;3.97;;;;;;;30.80;39.77;99488.34;4994429;28;20110;-90
2022/08/02 09:03:24;;;;;;;6.07;3.65;;;;;;;30.81;39.88;99476.56;4994258;28;20054;-90
2022/08/02 09:06:00;;;;;;;4.50;3.50;;;;;;;30.81;39.79;99484.63;4981483;28;20049;-90
2022/08/02 09:08:29;;;;;;;4.07;3.35;;;;;;;30.84;40.00;99483.47;4992189;28;20509;-88
2022/08/02 09:11:26;;;;;;;4.25;3.35;;;;;;;30.84;40.15;99482.66;4975700;28;20045;-89
2022/08/02 09:13:57;;;;;;;4.72;3.55;;;;;;;30.87;39.67;99485.00;5003274;28;20093;-90
2022/08/02 09:16:58;;;;;;;4.38;3.35;;;;;;;30.89;39.73;99474.94;4990377;28;20026;-90
2022/08/02 09:19:28;;;;;;;5.28;3.45;;;;;;;30.92;39.89;99482.69;4992326;28;20042;-92
2022/08/02 09:22:11;;;;;;;5.13;3.60;;;;;;;30.93;39.83;99476.28;4999071;28;20525;-91
2022/08/02 09:25:06;;;;;;;4.45;3.58;;;;;;;30.95;39.78;99479.69;4990780;28;20068;-91
2022/08/02 09:27:36;;;;;;;4.57;3.30;;;;;;;30.97;39.62;99483.06;5006431;28;20054;-90
2022/08/02 09:30:03;;;;;;;4.55;3.25;;;;;;;30.98;39.89;99479.34;4989327;28;20048;-90
2022/08/02 09:32:48;;;;;;;4.57;3.90;;;;;;;31.01;39.61;99479.06;5005018;28;20111;-89
2022/08/02 09:38:22;;;;;;;4.90;3.35;;;;;;;31.06;39.59;99484.81;5006347;28;20068;-92
2022/08/02 09:40:49;;;;;;;5.97;3.60;;;;;;;31.07;39.50;99477.56;4991874;28;20026;-89
2022/08/02 09:43:19;;;;;;;4.38;3.15;;;;;;;31.10;39.37;99476.38;4973588;28;20061;-91
2022/08/02 09:45:45;;;;;;;4.40;3.25;;;;;;;31.12;39.62;99475.22;4976670;28;20054;-89
2022/08/02 09:48:11;;;;;;;4.18;3.22;;;;;;;31.14;39.60;99477.75;4989235;28;20044;-91
2022/08/02 09:50:39;;;;;;;4.45;3.20;;;;;;;31.14;39.39;99477.75;4987459;28;20052;-91
2022/08/02 09:53:10;;;;;;;6.75;3.65;;;;;;;31.17;39.45;99477.44;4985516;28;20034;-92
2022/08/02 09:55:36;;;;;;;5.05;3.83;;;;;;;31.20;39.36;99469.03;4987585;28;20484;-93
2022/08/02 09:58:33;;;;;;;5.57;3.90;;;;;;;31.21;39.36;99476.97;4987390;28;20031;-90
2022/08/02 10:01:02;;;;;;;5.82;3.90;;;;;;;31.24;39.29;99466.84;4985807;28;20477;-90
2022/08/02 10:03:28;;;;;;;6.47;3.97;;;;;;;31.27;39.24;99466.53;4984556;28;20026;-90
2022/08/02 10:06:00;;;;;;;4.55;3.47;;;;;;;31.28;39.20;99463.69;4986298;28;20034;-91
2022/08/02 10:08:49;;;;;;;4.65;3.40;;;;;;;31.29;39.12;99457.31;4985946;28;20381;-91
2022/08/02 10:11:16;;;;;;;5.55;3.55;;;;;;;31.31;39.09;99452.59;5001227;28;20076;-90
2022/08/02 10:13:44;;;;;;;5.10;3.60;;;;;;;31.34;39.22;99456.84;4985401;28;20105;-90
2022/08/02 10:16:15;;;;;;;4.82;3.50;;;;;;;31.36;39.26;99452.09;5002881;28;20030;-91
2022/08/02 10:18:43;;;;;;;5.10;3.80;;;;;;;31.40;39.21;99447.22;4985699;28;20022;-91
2022/08/02 10:21:28;;;;;;;5.30;3.30;;;;;;;31.41;38.92;99447.06;4988855;28;20026;-91
2022/08/02 10:30:47;;;;;;;5.25;3.58;;;;;;;31.51;39.04;99441.53;5016361;28;20050;-90
2022/08/02 10:33:18;;;;;;;5.47;3.50;;;;;;;31.52;38.97;99440.53;5003108;28;20025;-91
2022/08/02 10:36:01;;;;;;;4.78;3.45;;;;;;;31.53;38.88;99442.25;5003153;28;20025;-91
2022/08/02 10:38:30;;;;;;;4.85;3.50;;;;;;;31.56;38.99;99432.97;5020616;28;20469;-91
2022/08/02 10:40:57;;;;;;;3.83;2.90;;;;;;;31.58;38.79;99431.78;5001994;28;20091;-91
2022/08/02 10:46:43;;;;;;;5.57;3.47;;;;;;;31.63;38.88;99422.34;5019888;28;20231;-90
2022/08/02 10:49:12;;;;;;;5.00;3.50;;;;;;;31.65;39.08;99425.75;5001922;28;20046;-92
2022/08/02 10:55:13;;;;;;;3.88;2.97;;;;;;;31.70;38.82;99412.59;5038814;23;20061;-91
2022/08/02 11:01:24;;;;;;;3.88;2.88;;;;;;;31.75;38.67;99404.84;4984386;28;20042;-91
2022/08/02 11:03:58;;;;;;;3.65;2.67;;;;;;;31.76;38.93;99401.13;4973462;28;20428;-90
2022/08/02 11:06:23;;;;;;;4.30;2.97;;;;;;;31.81;38.97;99409.56;4982379;28;20027;-92
2022/08/02 11:09:31;;;;;;;4.03;2.92;;;;;;;31.83;38.64;99401.31;4983467;28;20026;-92
2022/08/02 11:12:09;;;;;;;3.75;2.85;;;;;;;31.85;38.61;99399.31;4985196;28;20061;-92
2022/08/02 11:14:41;;;;;;;3.97;2.90;;;;;;;31.88;38.63;99394.47;4982444;28;20049;-91
2022/08/02 11:17:58;;;;;;;4.30;2.80;;;;;;;31.92;38.64;99394.13;4982244;28;20053;-91
2022/08/02 11:20:25;;;;;;;3.45;2.60;;;;;;;31.94;38.73;99392.94;4982678;28;20069;-91
2022/08/02 11:22:55;;;;;;;3.92;2.95;;;;;;;31.96;38.28;99390.06;4983847;28;20046;-90
2022/08/02 11:25:23;;;;;;;3.78;2.60;;;;;;;31.99;38.55;99378.94;4986953;28;20183;-91
2022/08/02 11:28:06;;;;;;;3.55;2.67;;;;;;;32.01;38.51;99387.72;5003830;28;20426;-91
2022/08/02 11:30:32;;;;;;;3.55;2.80;;;;;;;32.04;38.50;99381.16;5002362;28;20037;-91
2022/08/02 11:33:04;;;;;;;3.80;2.60;;;;;;;32.06;38.43;99388.06;4984696;28;20026;-91
2022/08/02 11:35:40;;;;;;;4.35;2.80;;;;;;;32.07;38.55;99384.34;4984243;28;20343;-91
2022/08/02 11:38:32;;;;;;;;;;;;;;;32.10;38.18;99370.50;4984906;28;20030;-91
2022/08/02 11:41:12;;;;;;;;;;;;;;;;;;;;;
2022/08/02 11:43:39;;;;;;;3.58;2.30;;;;;;;32.14;38.41;99366.47;5000841;28;20121;-91
2022/08/02 11:46:15;;;;;;;3.03;2.13;;;;;;;32.17;38.27;99359.00;4999923;28;20030;-91
2022/08/02 11:48:43;;;;;;;3.10;2.38;;;;;;;32.19;38.28;99367.81;4985584;28;20033;-91
2022/08/02 11:51:15;;;;;;;3.15;2.42;;;;;;;32.21;38.50;99371.16;4986180;28;20045;-91
2022/08/02 11:53:56;;;;;;;4.18;2.72;;;;;;;32.23;38.32;99358.34;4982812;28;20047;-91
2022/08/02 11:56:44;;;;;;;2.85;2.08;;;;;;;32.26;38.29;99353.44;4982674;28;20058;-92
2022/08/02 11:59:10;;;;;;;3.35;2.13;;;;;;;32.28;37.98;99353.28;4985138;28;20026;-92
2022/08/02 12:01:38;;;;;;;3.40;2.40;;;;;;;32.30;38.20;99361.22;4986356;28;20027;-91
2022/08/02 12:04:06;;;;;;;2.75;1.98;;;;;;;32.31;38.17;99350.25;4984876;28;20386;-91
2022/08/02 12:06:34;;;;;;;2.95;1.90;;;;;;;32.32;38.21;99346.53;4985940;28;20022;-91
2022/08/02 12:09:12;;;;;;;3.15;2.03;;;;;;;32.34;38.09;99344.47;4984327;28;20034;-91
2022/08/02 12:11:38;;;;;;;3.90;2.50;;;;;;;32.36;38.09;99353.28;4984488;28;20077;-92
2022/08/02 12:14:05;;;;;;;3.38;2.25;;;;;;;32.39;38.28;99341.28;4983926;28;20480;-91
2022/08/02 12:19:30;;;;;;;2.33;1.90;;;;;;;32.44;38.34;99338.09;4984127;28;20170;-91
2022/08/02 12:22:18;;;;;;;2.58;1.95;;;;;;;32.48;38.26;99334.03;4982788;28;20023;-92
2022/08/02 12:24:52;;;;;;;3.42;2.20;;;;;;;32.48;38.11;99334.88;4984748;28;20042;-91
2022/08/02 12:27:36;;;;;;;2.25;1.75;;;;;;;32.50;38.16;99338.25;4984359;28;20591;-91
2022/08/02 12:30:11;;;;;;;2.65;1.90;;;;;;;32.52;38.16;99330.81;4981343;28;20030;-91
2022/08/02 12:32:38;;;;;;;3.43;2.33;;;;;;;32.54;38.18;99327.94;4982508;28;20041;-91
2022/08/02 12:35:18;;;;;;;3.28;2.30;;;;;;;32.57;38.07;99316.78;4982212;28;20118;-91
2022/08/02 12:37:47;;;;;;;2.83;1.90;;;;;;;32.58;38.13;99313.06;4982707;28;20482;-91
2022/08/02 12:40:24;;;;;;;2.60;1.77;;;;;;;32.61;38.04;99317.28;4982788;28;20031;-91
2022/08/02 12:42:53;;;;;;;3.58;2.20;;;;;;;32.62;38.10;99314.41;4981094;28;20030;-90
2022/08/02 12:45:19;;;;;;;3.00;2.03;;;;;;;32.64;38.45;99300.72;4980558;28;20035;-91
2022/08/02 12:47:50;;;;;;;3.15;2.10;;;;;;;32.66;38.39;99296.84;4980283;28;20058;-91
2022/08/02 12:50:36;;;;;;;2.90;1.90;;;;;;;32.68;38.13;99297.50;4980435;28;20030;-91
2022/08/02 12:53:19;;;;;;;2.83;1.83;;;;;;;32.71;37.98;99290.91;4979971;28;20039;-92
2022/08/02 12:56:01;;;;;;;3.33;2.10;;;;;;;32.73;37.78;99294.25;4980484;28;20105;-92
2022/08/02 12:58:48;;;;;;;3.55;1.90;;;;;;;32.75;38.06;99288.69;4981221;28;20031;-91
2022/08/02 13:01:25;;;;;;;;;;;;;;;32.77;37.99;99290.19;4979779;28;20043;-91
2022/08/02 13:03:55;;;;;;;2.70;1.77;;;;;;;32.79;38.00;99288.16;4981988;28;19914;-91
2022/08/02 13:06:34;;;;;;;2.38;1.90;;;;;;;32.82;38.08;99281.56;4981787;28;20030;-91
2022/08/02 13:09:17;;;;;;;2.92;1.83;;;;;;;32.84;37.98;99279.53;4980157;28;20023;-92
2022/08/02 13:11:47;;;;;;;2.95;1.90;;;;;;;32.86;37.68;99276.63;4980634;28;20046;-91
2022/08/02 13:14:14;;;;;;;2.70;1.90;;;;;;;32.89;37.82;99277.16;4980225;28;20018;-92
2022/08/02 13:16:45;;;;;;;2.95;2.03;;;;;;;32.90;37.84;99278.81;4981470;28;20466;-92
2022/08/02 13:19:14;;;;;;;2.55;1.80;;;;;;;32.92;37.49;99270.56;4982669;28;20406;-91
2022/08/02 13:21:44;;;;;;;2.70;1.67;;;;;;;32.93;37.79;99262.25;4980257;28;20089;-91
2022/08/02 13:24:14;;;;;;;2.50;1.58;;;;;;;32.95;37.65;99265.63;4979701;28;20041;-91
2022/08/02 13:27:12;;;;;;;2.72;1.92;;;;;;;32.97;37.64;99267.34;4979618;28;20030;-91
2022/08/02 13:29:40;;;;;;;1.70;1.50;;;;;;;32.99;37.78;99259.88;4980631;28;20371;-91
2022/08/02 13:32:15;;;;;;;2.67;1.83;;;;;;;33.01;37.79;99257.88;4979896;28;20109;-91
2022/08/02 13:34:46;;;;;;;1.85;1.40;;;;;;;33.03;37.68;99256.63;4979066;28;20043;-91
2022/08/02 13:37:25;;;;;;;2.67;1.85;;;;;;;33.03;37.83;99250.41;4980351;28;20374;-91
2022/08/02 13:40:03;;;;;;;2.35;1.63;;;;;;;33.06;38.00;99250.03;4982479;28;20022;-91
2022/08/02 13:42:29;;;;;;;3.33;1.85;;;;;;;33.08;37.78;99250.72;4980373;28;20073;-91
2022/08/02 13:44:58;;;;;;;2.63;1.63;;;;;;;33.09;37.72;99244.28;4979832;28;20485;-91
2022/08/02 13:47:24;;;;;;;3.63;1.77;;;;;;;33.10;37.68;99245.97;4981460;28;20363;-91
2022/08/02 13:50:07;;;;;;;2.38;1.80;;;;;;;33.12;37.82;99249.31;4982953;28;20023;-91
2022/08/02 13:52:43;;;;;;;2.05;1.63;;;;;;;33.14;37.52;99252.69;4981291;28;20031;-91
2022/08/02 13:55:14;;;;;;;3.17;1.63;;;;;;;33.17;37.72;99246.91;4984217;28;20026;-91
2022/08/02 13:57:45;;;;;;;3.72;1.80;;;;;;;33.18;37.82;99251.31;4982719;28;20026;-91
2022/08/02 14:00:34;;;;;;;2.17;1.45;;;;;;;33.19;37.98;99250.31;4982320;28;20030;-91
2022/08/02 14:03:26;;;;;;;2.10;1.50;;;;;;;33.22;37.70;99244.53;4982164;28;20081;-91
2022/08/02 14:05:57;;;;;;;3.15;1.55;;;;;;;33.23;37.61;99245.38;4980959;28;20342;-91
2022/08/02 14:08:34;;;;;;;1.75;1.30;;;;;;;33.25;37.37;99242.50;4981405;28;20030;-91
2022/08/02 14:11:12;;;;;;;1.98;1.20;;;;;;;33.27;37.30;99240.44;4980018;28;20037;-91
2022/08/02 14:13:51;;;;;;;2.05;1.20;;;;;;;33.29;37.51;99235.69;4980970;28;20026;-91
2022/08/02 14:16:38;;;;;;;1.60;1.02;;;;;;;33.29;37.26;99232.97;4998220;28;20018;-91
2022/08/02 14:19:04;;;;;;;2.13;1.40;;;;;;;33.32;37.08;99232.63;4980178;28;20495;-91
2022/08/02 14:21:30;;;;;;;1.77;0.95;;;;;;;33.33;37.14;99237.00;4980420;28;20112;-91
2022/08/02 14:23:59;;;;;;;2.75;1.30;;;;;;;33.33;37.39;99229.75;4980639;28;20026;-91
2022/08/02 14:26:28;;;;;;;1.67;1.15;;;;;;;33.35;37.09;99226.84;4980753;28;20703;-92
2022/08/02 14:28:59;;;;;;;2.35;1.13;;;;;;;33.35;37.24;99227.69;4980319;28;20026;-92
2022/08/02 14:31:39;;;;;;;1.58;1.17;;;;;;;33.36;36.96;99223.16;4980727;28;20104;-91
2022/08/02 14:34:06;;;;;;;1.75;1.40;;;;;;;33.37;37.29;99219.41;4981777;28;20054;-91
2022/08/02 14:36:51;;;;;;;1.70;1.20;;;;;;;33.38;37.02;99210.28;4985257;28;20026;-92
2022/08/02 14:39:17;;;;;;;1.83;1.00;;;;;;;33.39;36.94;99209.25;4982754;28;20029;-92
2022/08/02 14:41:46;;;;;;;1.90;1.27;;;;;;;33.38;36.92;99204.88;4982904;28;20113;-92
2022/08/02 14:44:12;;;;;;;2.45;1.20;;;;;;;33.39;36.61;99209.25;4981517;28;20061;-93
2022/08/02 14:46:41;;;;;;;2.80;1.42;;;;;;;33.40;36.72;99205.50;4980019;28;20030;-92
2022/08/02 14:49:14;;;;;;;1.80;1.20;;;;;;;33.42;36.36;99211.59;4980417;28;20037;-91
2022/08/02 14:51:40;;;;;;;1.85;1.20;;;;;;;33.43;36.40;99207.88;4982225;28;20539;-91
2022/08/02 14:54:09;;;;;;;2.47;1.38;;;;;;;33.43;36.38;99207.88;4982797;28;20339;-91
2022/08/02 14:56:35;;;;;;;1.48;1.05;;;;;;;33.44;36.16;99204.13;4982769;28;20030;-91
2022/08/02 14:59:16;;;;;;;1.40;1.00;;;;;;;33.45;36.35;99205.81;4981283;28;20031;-92
2022/08/02 15:01:42;;;;;;;2.00;1.20;;;;;;;33.47;36.27;99198.34;4983389;28;20026;-91
2022/08/02 15:04:12;;;;;;;1.70;1.20;;;;;;;33.46;36.27;99202.06;4982321;28;20082;-92
2022/08/02 15:06:42;;;;;;;2.38;1.20;;;;;;;33.48;36.04;99193.78;4981082;28;20084;-91
2022/08/02 15:09:30;;;;;;;1.98;1.10;;;;;;;33.49;36.14;99192.75;4997846;28;20026;-91
2022/08/02 15:11:56;;;;;;;1.23;0.90;;;;;;;33.51;35.86;99192.63;4979899;28;20045;-91
2022/08/02 15:14:23;;;;;;;1.80;1.02;;;;;;;33.51;35.86;99187.22;4964202;28;20438;-91
2022/08/02 15:16:56;;;;;;;1.10;0.95;;;;;;;33.51;36.02;99179.94;4980532;28;20131;-92
2022/08/02 15:19:22;;;;;;;1.17;0.80;;;;;;;33.53;35.82;99179.75;4980340;28;20026;-91
2022/08/02 15:21:48;;;;;;;2.08;1.30;;;;;;;33.53;35.85;99185.16;5003102;28;20042;-91
2022/08/02 15:24:14;;;;;;;1.58;1.08;;;;;;;33.54;36.17;99176.84;4990490;28;20098;-91
2022/08/02 15:26:40;;;;;;;1.75;1.17;;;;;;;33.55;36.10;99172.31;4985597;28;20058;-92
2022/08/02 15:29:06;;;;;;;1.95;1.17;;;;;;;33.54;36.47;99176.84;4986650;28;20410;-91
2022/08/02 15:31:31;;;;;;;1.73;0.90;;;;;;;33.55;36.47;99172.31;5004177;28;20058;-91
2022/08/02 15:33:59;;;;;;;1.77;1.00;;;;;;;33.57;36.40;99167.53;5003602;28;20098;-92
2022/08/02 15:36:25;;;;;;;1.83;1.10;;;;;;;33.56;35.94;99163.16;4984961;28;20018;-91
2022/08/02 15:38:51;;;;;;;2.08;1.20;;;;;;;33.55;36.18;99167.72;4985071;28;20026;-91
2022/08/02 15:41:28;;;;;;;1.73;1.05;;;;;;;33.58;35.72;99171.91;4984847;28;20373;-91
2022/08/02 15:44:00;;;;;;;1.20;0.85;;;;;;;33.58;35.86;99161.09;4984107;28;20031;-91
2022/08/02 15:46:35;;;;;;;2.03;1.05;;;;;;;33.58;35.63;99155.69;4983490;28;20137;-92
2022/08/02 15:49:01;;;;;;;1.33;0.93;;;;;;;33.60;35.47;99161.78;4986147;28;20026;-92
2022/08/02 15:51:27;;;;;;;1.23;0.80;;;;;;;33.60;35.85;99161.78;4984311;28;20044;-91
2022/08/02 15:53:53;;;;;;;1.98;1.20;;;;;;;33.60;35.87;99150.97;4984231;28;20049;-91
2022/08/02 15:56:35;;;;;;;1.20;0.80;;;;;;;33.60;35.63;99148.25;4986476;28;20030;-91
2022/08/02 15:59:01;;;;;;;1.52;1.00;;;;;;;33.61;35.35;99139.94;4984855;28;20374;-91
2022/08/02 16:01:27;;;;;;;1.77;1.10;;;;;;;33.63;35.41;99141.63;5002523;28;20110;-91
2022/08/02 16:03:52;;;;;;;1.40;1.00;;;;;;;33.62;35.65;99135.38;4988100;28;20102;-91
2022/08/02 16:06:37;;;;;;;1.08;0.68;;;;;;;33.64;35.64;99135.19;5004693;28;20210;-91
2022/08/02 16:09:04;;;;;;;1.83;0.90;;;;;;;33.64;35.38;99129.78;4984124;28;20026;-91
2022/08/02 16:11:32;;;;;;;1.30;0.88;;;;;;;33.64;35.70;99132.50;4985078;28;20034;-91
2022/08/02 16:14:14;;;;;;;1.25;0.70;;;;;;;33.64;35.39;99133.31;4985147;28;20018;-91
2022/08/02 16:16:40;;;;;;;1.17;0.85;;;;;;;33.63;35.36;99112.69;4984991;28;20041;-91
2022/08/02 16:19:06;;;;;;;1.60;0.82;;;;;;;33.65;35.12;99113.34;5002634;28;20023;-91
2022/08/02 16:21:32;;;;;;;1.17;0.90;;;;;;;33.65;35.21;99124.16;5002402;28;20078;-91
2022/08/02 16:23:59;;;;;;;1.65;0.88;;;;;;;33.66;35.44;99120.47;5001729;28;20049;-91
2022/08/02 16:26:28;;;;;;;2.08;0.90;;;;;;;33.66;35.01;99115.03;4984877;28;20474;-92
2022/08/02 16:28:55;;;;;;;1.48;1.00;;;;;;;33.68;35.15;99106.72;4984417;28;20022;-91
2022/08/02 16:31:20;;;;;;;1.00;0.80;;;;;;;33.66;35.05;99106.94;4982967;28;20034;-91
2022/08/02 16:33:48;;;;;;;1.13;0.80;;;;;;;33.68;35.23;99112.97;4981905;28;20524;-91
2022/08/02 16:36:17;;;;;;;0.95;0.80;;;;;;;33.68;35.26;99099.47;4984581;28;20026;-91
2022/08/02 16:38:42;;;;;;;1.17;0.70;;;;;;;33.69;35.48;99103.00;4967096;28;20026;-91
2022/08/02 16:41:09;;;;;;;1.60;1.00;;;;;;;33.69;35.21;99103.84;4985211;28;20089;-91
2022/08/02 16:44:06;;;;;;;1.30;0.80;;;;;;;33.69;35.37;99095.72;4984915;28;20072;-91
2022/08/02 16:46:35;;;;;;;1.70;1.05;;;;;;;33.70;35.26;99093.88;4974363;28;20462;-92
2022/08/02 16:49:10;;;;;;;1.70;0.93;;;;;;;33.70;35.04;99099.28;4983439;28;20402;-91
2022/08/02 16:51:38;;;;;;;2.88;0.88;;;;;;;33.69;34.89;99086.78;4982802;28;20037;-91
2022/08/02 16:54:04;;;;;;;1.42;0.77;;;;;;;33.70;35.05;99089.28;4979839;28;20109;-91
2022/08/02 16:56:30;;;;;;;1.67;0.80;;;;;;;33.71;34.94;99085.53;4980785;28;20043;-91
2022/08/02 16:58:56;;;;;;;0.88;0.80;;;;;;;33.71;35.04;99087.41;4979045;28;20026;-92
2022/08/02 17:01:22;;;;;;;1.20;0.65;;;;;;;33.71;34.59;99085.53;4980555;28;20022;-92
2022/08/02 17:03:48;;;;;;;1.25;0.80;;;;;;;33.71;34.76;99085.53;4988104;28;20042;-92
2022/08/02 17:06:14;;;;;;;2.05;0.65;;;;;;;33.72;34.80;99076.41;4983356;28;20150;-91
2022/08/02 17:08:56;;;;;;;1.27;0.80;;;;;;;33.72;35.07;99079.13;4982251;28;20513;-91
2022/08/02 17:11:22;;;;;;;1.15;0.70;;;;;;;33.72;35.11;99080.97;4981598;28;20478;-91
2022/08/02 17:13:53;;;;;;;1.23;0.85;;;;;;;33.72;35.46;99084.53;4982977;28;20030;-90
2022/08/02 17:16:27;;;;;;;1.27;0.80;;;;;;;33.72;35.18;99076.41;4980127;28;20045;-91
2022/08/02 17:18:53;;;;;;;1.17;0.77;;;;;;;33.71;34.81;99080.13;4981048;28;20121;-90
2022/08/02 17:21:19;;;;;;;1.70;0.88;;;;;;;33.71;34.71;99080.13;4980457;28;20031;-92
2022/08/02 17:23:44;;;;;;;1.15;0.80;;;;;;;33.71;34.13;99080.13;4981664;28;20102;-91
2022/08/02 17:26:10;;;;;;;1.58;0.75;;;;;;;33.71;33.81;99090.13;4982083;28;20038;-91
2022/08/02 17:28:37;;;;;;;1.10;0.70;;;;;;;33.69;33.64;99087.59;4982138;28;20058;-91
2022/08/02 17:31:03;;;;;;;1.20;0.70;;;;;;;33.70;33.17;99083.88;4983062;28;20026;-92